createdAt,value
2022-12-08T00:00:45.305Z,26
2022-12-08T00:01:48.391Z,29
2022-12-08T00:02:51.940Z,33
2022-12-08T00:03:55.445Z,33
2022-12-08T00:04:58.065Z,32
2022-12-08T00:06:00.677Z,28
2022-12-08T00:07:03.452Z,23
2022-12-08T00:08:06.393Z,22
2022-12-08T00:09:09.204Z,20
2022-12-08T00:10:47.072Z,20
2022-12-08T00:11:33.623Z,18
2022-12-08T00:12:36.370Z,19
2022-12-08T00:13:38.948Z,19
2022-12-08T00:14:41.566Z,20
2022-12-08T00:15:44.181Z,20
2022-12-08T00:16:46.939Z,19
2022-12-08T00:17:49.786Z,19
2022-12-08T00:18:52.398Z,19
2022-12-08T00:19:55.004Z,19
2022-12-08T00:20:57.572Z,18
2022-12-08T00:22:00.173Z,18
2022-12-08T00:23:02.826Z,17
2022-12-08T00:24:05.417Z,16
2022-12-08T00:25:08.008Z,17
2022-12-08T00:26:10.632Z,18
2022-12-08T00:27:13.253Z,17
2022-12-08T00:28:15.848Z,17
2022-12-08T00:29:18.514Z,17
2022-12-08T00:30:21.411Z,16
2022-12-08T00:31:24.177Z,17
2022-12-08T00:32:26.874Z,17
2022-12-08T00:33:29.462Z,16
2022-12-08T00:34:32.068Z,17
2022-12-08T00:35:43.013Z,17
2022-12-08T00:36:45.878Z,17
2022-12-08T00:37:48.436Z,17
2022-12-08T00:38:51.020Z,17
2022-12-08T00:39:53.803Z,17
2022-12-08T00:40:56.390Z,17
2022-12-08T00:41:59.073Z,19
2022-12-08T00:43:01.776Z,17
2022-12-08T00:44:04.459Z,17
2022-12-08T00:45:07.135Z,16
2022-12-08T00:46:09.996Z,17
2022-12-08T00:47:12.784Z,16
2022-12-08T00:48:15.442Z,17
2022-12-08T00:49:18.026Z,14
2022-12-08T00:50:20.675Z,-1
2022-12-08T00:51:23.303Z,14
2022-12-08T00:52:25.891Z,14
2022-12-08T00:53:28.464Z,14
2022-12-08T00:54:31.016Z,14
2022-12-08T00:55:33.643Z,13
2022-12-08T00:56:36.247Z,13
2022-12-08T00:57:38.840Z,13
2022-12-08T00:58:41.406Z,13
2022-12-08T00:59:44.116Z,13
2022-12-08T01:00:46.907Z,13
2022-12-08T01:01:49.696Z,13
2022-12-08T01:02:52.496Z,13
2022-12-08T01:03:55.275Z,13
2022-12-08T01:04:57.909Z,13
2022-12-08T01:06:00.490Z,14
2022-12-08T01:07:03.111Z,13
2022-12-08T01:08:05.863Z,13
2022-12-08T01:09:08.744Z,13
2022-12-08T01:10:11.343Z,13
2022-12-08T01:11:13.909Z,14
2022-12-08T01:12:16.523Z,14
2022-12-08T01:13:19.152Z,13
2022-12-08T01:14:21.751Z,13
2022-12-08T01:15:27.843Z,14
2022-12-08T01:16:30.326Z,14
2022-12-08T01:17:33.109Z,13
2022-12-08T01:18:35.689Z,11
2022-12-08T01:19:38.267Z,13
2022-12-08T01:20:40.891Z,12
2022-12-08T01:21:43.542Z,11
2022-12-08T01:22:46.137Z,13
2022-12-08T01:23:48.758Z,13
2022-12-08T01:24:51.386Z,11
2022-12-08T01:25:53.974Z,11
2022-12-08T01:26:56.572Z,13
2022-12-08T01:27:59.113Z,11
2022-12-08T01:29:01.743Z,11
2022-12-08T01:30:05.051Z,13
2022-12-08T01:31:08.328Z,13
2022-12-08T01:32:11.157Z,11
2022-12-08T01:33:13.772Z,11
2022-12-08T01:34:16.420Z,11
2022-12-08T01:35:19.035Z,12
2022-12-08T01:36:21.673Z,12
2022-12-08T01:37:24.254Z,13
2022-12-08T01:38:26.881Z,11
2022-12-08T01:39:29.533Z,11
2022-12-08T01:40:32.163Z,10
2022-12-08T01:41:34.848Z,10
2022-12-08T01:42:37.392Z,11
2022-12-08T01:43:39.948Z,10
2022-12-08T01:44:42.507Z,10
2022-12-08T01:45:45.173Z,13
2022-12-08T01:46:51.486Z,11
2022-12-08T01:47:53.962Z,10
2022-12-08T01:48:56.784Z,11
2022-12-08T01:49:59.349Z,11
2022-12-08T01:51:01.949Z,10
2022-12-08T01:52:04.554Z,10
2022-12-08T01:53:07.179Z,11
2022-12-08T01:54:09.872Z,11
2022-12-08T01:55:12.488Z,11
2022-12-08T01:56:15.080Z,11
2022-12-08T01:57:17.685Z,11
2022-12-08T01:58:21.246Z,10
2022-12-08T01:59:23.896Z,10
2022-12-08T02:00:26.452Z,10
2022-12-08T02:01:29.173Z,11
2022-12-08T02:02:32.024Z,11
2022-12-08T02:03:34.860Z,10
2022-12-08T02:04:37.475Z,10
2022-12-08T02:05:40.103Z,11
2022-12-08T02:06:42.712Z,10
2022-12-08T02:07:45.433Z,10
2022-12-08T02:08:48.170Z,10
2022-12-08T02:09:50.855Z,13
2022-12-08T02:10:53.497Z,13
2022-12-08T02:11:56.081Z,11
2022-12-08T02:12:58.671Z,10
2022-12-08T02:14:01.258Z,10
2022-12-08T02:15:05.789Z,10
2022-12-08T02:16:09.606Z,9
2022-12-08T02:17:12.464Z,11
2022-12-08T02:18:15.109Z,10
2022-12-08T02:19:30.588Z,11
2022-12-08T02:20:34.117Z,10
2022-12-08T02:21:36.698Z,11
2022-12-08T02:22:39.334Z,10
2022-12-08T02:23:42.022Z,10
2022-12-08T02:24:44.618Z,10
2022-12-08T02:25:47.272Z,10
2022-12-08T02:26:49.868Z,11
2022-12-08T02:27:52.516Z,11
2022-12-08T02:28:55.213Z,11
2022-12-08T02:29:57.799Z,10
2022-12-08T02:31:00.532Z,11
2022-12-08T02:32:03.255Z,10
2022-12-08T02:33:05.836Z,11
2022-12-08T02:34:08.516Z,11
2022-12-08T02:35:11.129Z,10
2022-12-08T02:36:13.841Z,11
2022-12-08T02:37:16.435Z,11
2022-12-08T02:38:19.062Z,10
2022-12-08T02:39:21.732Z,10
2022-12-08T02:40:24.358Z,10
2022-12-08T02:41:27.030Z,11
2022-12-08T02:42:29.607Z,10
2022-12-08T02:43:32.231Z,11
2022-12-08T02:44:34.837Z,10
2022-12-08T02:45:37.516Z,10
2022-12-08T02:46:40.360Z,10
2022-12-08T02:47:43.143Z,11
2022-12-08T02:48:45.772Z,11
2022-12-08T02:49:48.405Z,11
2022-12-08T02:50:51.008Z,11
2022-12-08T02:51:53.631Z,11
2022-12-08T02:52:56.245Z,11
2022-12-08T02:53:58.863Z,10
2022-12-08T02:55:01.480Z,11
2022-12-08T02:56:04.052Z,11
2022-12-08T02:57:06.639Z,11
2022-12-08T02:58:09.223Z,11
2022-12-08T02:59:12.416Z,11
2022-12-08T03:00:15.013Z,13
2022-12-08T03:01:17.894Z,13
2022-12-08T03:02:20.724Z,13
2022-12-08T03:03:23.772Z,14
2022-12-08T03:04:26.399Z,14
2022-12-08T03:05:29.008Z,14
2022-12-08T03:06:31.636Z,13
2022-12-08T03:07:34.290Z,13
2022-12-08T03:08:36.892Z,13
2022-12-08T03:09:39.563Z,11
2022-12-08T03:10:42.179Z,13
2022-12-08T03:11:44.727Z,11
2022-12-08T03:12:47.327Z,11
2022-12-08T03:13:49.941Z,13
2022-12-08T03:14:52.592Z,11
2022-12-08T03:15:55.303Z,11
2022-12-08T03:16:58.041Z,11
2022-12-08T03:18:00.703Z,11
2022-12-08T03:19:03.350Z,10
2022-12-08T03:20:06.720Z,11
2022-12-08T03:21:10.414Z,10
2022-12-08T03:22:12.915Z,11
2022-12-08T03:23:15.584Z,11
2022-12-08T03:24:18.194Z,11
2022-12-08T03:25:20.810Z,11
2022-12-08T03:26:23.463Z,11
2022-12-08T03:27:26.085Z,11
2022-12-08T03:28:28.720Z,11
2022-12-08T03:29:31.347Z,11
2022-12-08T03:30:33.963Z,10
2022-12-08T03:31:36.729Z,11
2022-12-08T03:32:39.537Z,11
2022-12-08T03:33:42.099Z,16
2022-12-08T03:34:44.759Z,20
2022-12-08T03:35:47.392Z,20
2022-12-08T03:36:50.017Z,18
2022-12-08T03:37:52.667Z,17
2022-12-08T03:38:55.293Z,14
2022-12-08T03:39:57.908Z,13
2022-12-08T03:41:00.555Z,13
2022-12-08T03:42:03.142Z,11
2022-12-08T03:43:05.787Z,11
2022-12-08T03:44:08.430Z,11
2022-12-08T03:45:11.040Z,10
2022-12-08T03:46:13.704Z,8
2022-12-08T03:47:16.440Z,10
2022-12-08T03:48:19.072Z,11
2022-12-08T03:49:21.732Z,11
2022-12-08T03:50:24.467Z,-1
2022-12-08T03:51:27.084Z,11
2022-12-08T03:52:29.747Z,11
2022-12-08T03:53:32.388Z,11
2022-12-08T03:54:35.035Z,11
2022-12-08T03:55:37.691Z,11
2022-12-08T03:56:40.266Z,11
2022-12-08T03:57:42.855Z,10
2022-12-08T03:58:45.475Z,10
2022-12-08T03:59:48.298Z,11
2022-12-08T04:00:50.920Z,11
2022-12-08T04:01:53.675Z,11
2022-12-08T04:02:56.650Z,19
2022-12-08T04:03:59.435Z,23
2022-12-08T04:05:02.016Z,24
2022-12-08T04:06:04.644Z,23
2022-12-08T04:07:07.224Z,20
2022-12-08T04:08:10.083Z,18
2022-12-08T04:09:12.962Z,14
2022-12-08T04:10:15.603Z,11
2022-12-08T04:11:18.212Z,11
2022-12-08T04:12:20.837Z,11
2022-12-08T04:13:23.444Z,11
2022-12-08T04:14:25.971Z,10
2022-12-08T04:15:28.697Z,10
2022-12-08T04:16:31.530Z,11
2022-12-08T04:17:34.266Z,13
2022-12-08T04:18:36.892Z,11
2022-12-08T04:19:39.541Z,11
2022-12-08T04:20:42.116Z,11
2022-12-08T04:21:44.818Z,13
2022-12-08T04:22:47.503Z,11
2022-12-08T04:23:50.542Z,11
2022-12-08T04:25:00.902Z,11
2022-12-08T04:26:03.533Z,11
2022-12-08T04:27:06.217Z,11
2022-12-08T04:28:08.801Z,13
2022-12-08T04:29:11.376Z,11
2022-12-08T04:30:13.969Z,13
2022-12-08T04:31:16.751Z,11
2022-12-08T04:32:19.551Z,13
2022-12-08T04:33:22.201Z,13
2022-12-08T04:34:24.821Z,11
2022-12-08T04:35:27.404Z,13
2022-12-08T04:36:30.023Z,13
2022-12-08T04:37:32.696Z,13
2022-12-08T04:38:35.263Z,13
2022-12-08T04:39:41.486Z,13
2022-12-08T04:40:43.917Z,13
2022-12-08T04:41:46.522Z,11
2022-12-08T04:42:49.133Z,11
2022-12-08T04:43:51.775Z,11
2022-12-08T04:44:54.447Z,11
2022-12-08T04:45:57.071Z,11
2022-12-08T04:46:59.893Z,11
2022-12-08T04:48:04.130Z,13
2022-12-08T04:49:06.506Z,11
2022-12-08T04:50:09.163Z,13
2022-12-08T04:51:11.755Z,11
2022-12-08T04:52:14.374Z,11
2022-12-08T04:53:16.979Z,13
2022-12-08T04:54:19.587Z,11
2022-12-08T04:55:22.223Z,11
2022-12-08T04:56:24.825Z,11
2022-12-08T04:57:27.511Z,13
2022-12-08T04:58:30.110Z,13
2022-12-08T04:59:32.941Z,11
2022-12-08T05:00:35.559Z,11
2022-12-08T05:01:38.494Z,13
2022-12-08T05:02:41.747Z,13
2022-12-08T05:03:44.489Z,13
2022-12-08T05:04:47.090Z,13
2022-12-08T05:05:49.709Z,13
2022-12-08T05:06:52.304Z,11
2022-12-08T05:07:54.985Z,13
2022-12-08T05:08:57.727Z,13
2022-12-08T05:10:00.337Z,14
2022-12-08T05:11:03.662Z,13
2022-12-08T05:12:06.299Z,14
2022-12-08T05:13:08.917Z,14
2022-12-08T05:14:17.004Z,13
2022-12-08T05:15:19.782Z,13
2022-12-08T05:16:22.524Z,13
2022-12-08T05:17:25.257Z,13
2022-12-08T05:18:27.857Z,11
2022-12-08T05:19:35.999Z,12
2022-12-08T05:20:40.679Z,13
2022-12-08T05:21:47.839Z,11
2022-12-08T05:22:49.896Z,11
2022-12-08T05:23:52.587Z,11
2022-12-08T05:24:55.147Z,13
2022-12-08T05:25:57.937Z,11
2022-12-08T05:27:00.595Z,13
2022-12-08T05:28:39.373Z,11
2022-12-08T05:29:25.041Z,11
2022-12-08T05:30:27.842Z,11
2022-12-08T05:31:30.505Z,11
2022-12-08T05:32:33.219Z,10
2022-12-08T05:33:35.822Z,11
2022-12-08T05:34:38.435Z,11
2022-12-08T05:35:41.648Z,11
2022-12-08T05:36:44.283Z,11
2022-12-08T05:37:46.930Z,11
2022-12-08T05:38:49.534Z,12
2022-12-08T05:39:52.150Z,10
2022-12-08T05:41:00.373Z,14
2022-12-08T05:42:04.947Z,14
2022-12-08T05:43:07.539Z,17
2022-12-08T05:44:10.120Z,17
2022-12-08T05:45:12.718Z,17
2022-12-08T05:46:15.484Z,15
2022-12-08T05:47:18.252Z,16
2022-12-08T05:48:20.856Z,17
2022-12-08T05:49:23.502Z,16
2022-12-08T05:51:47.120Z,17
2022-12-08T05:52:49.701Z,17
2022-12-08T05:53:52.333Z,19
2022-12-08T05:54:55.222Z,18
2022-12-08T05:55:58.079Z,17
2022-12-08T05:57:00.641Z,18
2022-12-08T05:58:08.278Z,18
2022-12-08T05:59:10.566Z,18
2022-12-08T06:00:13.111Z,19
2022-12-08T06:01:15.784Z,18
2022-12-08T06:02:22.319Z,19
2022-12-08T06:03:28.576Z,19
2022-12-08T06:04:31.325Z,19
2022-12-08T06:05:33.959Z,20
2022-12-08T06:06:36.629Z,24
2022-12-08T06:07:39.329Z,29
2022-12-08T06:08:42.376Z,35
2022-12-08T06:09:44.979Z,43
2022-12-08T06:10:47.635Z,46
2022-12-08T06:11:50.226Z,46
2022-12-08T06:12:52.825Z,44
2022-12-08T06:13:55.678Z,38
2022-12-08T06:14:58.491Z,35
2022-12-08T06:16:01.708Z,35
2022-12-08T06:17:06.101Z,31
2022-12-08T06:18:09.083Z,29
2022-12-08T06:19:11.708Z,25
2022-12-08T06:20:14.315Z,24
2022-12-08T06:21:22.421Z,25
2022-12-08T06:22:24.673Z,26
2022-12-08T06:23:27.257Z,21
2022-12-08T06:24:29.879Z,20
2022-12-08T06:25:33.066Z,20
2022-12-08T06:26:35.626Z,19
2022-12-08T06:27:38.247Z,18
2022-12-08T06:28:41.469Z,18
2022-12-08T06:29:44.714Z,19
2022-12-08T06:30:47.872Z,19
2022-12-08T06:31:50.579Z,19
2022-12-08T06:32:53.350Z,19
2022-12-08T06:33:55.934Z,19
2022-12-08T06:34:58.539Z,19
2022-12-08T06:36:01.196Z,18
2022-12-08T06:37:03.816Z,19
2022-12-08T06:38:06.440Z,19
2022-12-08T06:39:09.105Z,20
2022-12-08T06:40:15.255Z,21
2022-12-08T06:41:27.681Z,20
2022-12-08T06:42:29.838Z,20
2022-12-08T06:43:32.412Z,21
2022-12-08T06:44:34.992Z,20
2022-12-08T06:45:38.370Z,20
2022-12-08T06:46:41.075Z,20
2022-12-08T06:47:43.905Z,21
2022-12-08T06:48:46.480Z,23
2022-12-08T06:49:49.347Z,23
2022-12-08T06:50:52.414Z,24
2022-12-08T06:51:54.842Z,23
2022-12-08T06:53:05.322Z,23
2022-12-08T06:54:08.572Z,21
2022-12-08T06:55:35.237Z,20
2022-12-08T06:56:32.844Z,20
2022-12-08T06:57:38.835Z,21
2022-12-08T06:58:52.668Z,20
2022-12-08T06:59:55.395Z,20
2022-12-08T07:01:02.734Z,20
2022-12-08T07:02:05.283Z,20
2022-12-08T07:03:08.038Z,19
2022-12-08T07:04:10.678Z,19
2022-12-08T07:05:13.261Z,18
2022-12-08T07:06:15.888Z,19
2022-12-08T07:07:19.063Z,19
2022-12-08T07:08:27.093Z,19
2022-12-08T07:09:31.027Z,21
2022-12-08T07:10:33.373Z,23
2022-12-08T07:11:41.542Z,23
2022-12-08T07:12:43.694Z,23
2022-12-08T07:13:52.102Z,23
2022-12-08T07:14:54.274Z,21
2022-12-08T07:15:56.912Z,20
2022-12-08T07:16:59.688Z,20
2022-12-08T07:18:08.067Z,20
2022-12-08T07:19:10.241Z,19
2022-12-08T07:20:13.455Z,20
2022-12-08T07:21:16.022Z,20
2022-12-08T07:22:18.656Z,20
2022-12-08T07:23:21.563Z,20
2022-12-08T07:24:25.708Z,19
2022-12-08T07:25:28.047Z,19
2022-12-08T07:26:30.651Z,19
2022-12-08T07:27:34.809Z,19
2022-12-08T07:28:37.925Z,20
2022-12-08T07:29:40.558Z,24
2022-12-08T07:30:43.233Z,27
2022-12-08T07:31:46.114Z,30
2022-12-08T07:32:48.976Z,31
2022-12-08T07:33:51.840Z,27
2022-12-08T07:34:54.460Z,25
2022-12-08T07:35:57.346Z,23
2022-12-08T07:36:59.942Z,21
2022-12-08T07:38:02.790Z,21
2022-12-08T07:39:05.420Z,21
2022-12-08T07:40:08.622Z,21
2022-12-08T07:41:17.704Z,21
2022-12-08T07:42:19.850Z,20
2022-12-08T07:43:22.418Z,20
2022-12-08T07:44:25.015Z,20
2022-12-08T07:45:32.056Z,21
2022-12-08T07:46:34.506Z,21
2022-12-08T07:47:37.376Z,22
2022-12-08T07:48:40.059Z,22
2022-12-08T07:49:42.896Z,22
2022-12-08T07:50:45.552Z,22
2022-12-08T07:51:48.159Z,21
2022-12-08T07:52:50.849Z,21
2022-12-08T07:53:55.333Z,20
2022-12-08T07:54:58.111Z,20
2022-12-08T07:56:00.732Z,20
2022-12-08T07:57:03.938Z,20
2022-12-08T07:58:06.515Z,20
2022-12-08T07:59:09.124Z,20
2022-12-08T08:00:11.721Z,20
2022-12-08T08:01:15.454Z,20
2022-12-08T08:02:25.515Z,20
2022-12-08T08:03:28.983Z,21
2022-12-08T08:04:31.757Z,22
2022-12-08T08:05:41.092Z,21
2022-12-08T08:06:43.265Z,22
2022-12-08T08:07:46.052Z,22
2022-12-08T08:08:49.026Z,23
2022-12-08T08:09:51.608Z,23
2022-12-08T08:10:54.236Z,23
2022-12-08T08:12:29.407Z,23
2022-12-08T08:13:18.888Z,21
2022-12-08T08:14:21.575Z,21
2022-12-08T08:15:24.108Z,21
2022-12-08T08:16:26.977Z,22
2022-12-08T08:17:32.361Z,22
2022-12-08T08:18:35.412Z,23
2022-12-08T08:19:38.530Z,23
2022-12-08T08:20:46.733Z,26
2022-12-08T08:21:48.915Z,28
2022-12-08T08:22:54.071Z,29
2022-12-08T08:23:56.446Z,30
2022-12-08T08:24:59.268Z,30
2022-12-08T08:26:02.447Z,29
2022-12-08T08:27:05.019Z,29
2022-12-08T08:28:10.146Z,29
2022-12-08T08:29:12.439Z,29
2022-12-08T08:30:21.075Z,29
2022-12-08T08:31:23.807Z,29
2022-12-08T08:32:26.558Z,29
2022-12-08T08:33:39.185Z,29
2022-12-08T08:34:47.963Z,27
2022-12-08T08:35:50.191Z,26
2022-12-08T08:36:52.938Z,25
2022-12-08T08:37:55.720Z,23
2022-12-08T08:38:58.879Z,22
2022-12-08T08:40:02.289Z,21
2022-12-08T08:41:05.739Z,20
2022-12-08T08:42:08.357Z,20
2022-12-08T08:43:11.293Z,20
2022-12-08T08:44:13.893Z,20
2022-12-08T08:45:16.472Z,19
2022-12-08T08:46:19.146Z,19
2022-12-08T08:47:22.597Z,19
2022-12-08T08:48:30.843Z,19
2022-12-08T08:49:33.102Z,19
2022-12-08T08:50:38.003Z,20
2022-12-08T08:51:40.468Z,19
2022-12-08T08:52:43.102Z,19
2022-12-08T08:53:45.708Z,19
2022-12-08T08:54:53.829Z,18
2022-12-08T08:55:56.047Z,18
2022-12-08T08:56:58.713Z,18
2022-12-08T08:58:01.325Z,19
2022-12-08T08:59:03.947Z,19
2022-12-08T09:00:07.287Z,19
2022-12-08T09:01:11.068Z,19
2022-12-08T09:02:13.922Z,20
2022-12-08T09:03:16.846Z,19
2022-12-08T09:04:19.517Z,19
2022-12-08T09:05:22.191Z,17
2022-12-08T09:06:25.095Z,17
2022-12-08T09:07:28.013Z,17
2022-12-08T09:08:30.814Z,18
2022-12-08T09:09:33.768Z,18
2022-12-08T09:10:36.377Z,17
2022-12-08T09:11:38.982Z,18
2022-12-08T09:12:41.641Z,17
2022-12-08T09:13:44.246Z,16
2022-12-08T09:14:47.383Z,17
2022-12-08T09:15:50.061Z,19
2022-12-08T09:16:52.831Z,19
2022-12-08T09:17:55.961Z,17
2022-12-08T09:18:58.528Z,17
2022-12-08T09:20:01.604Z,18
2022-12-08T09:21:10.703Z,17
2022-12-08T09:22:18.410Z,19
2022-12-08T09:23:20.705Z,19
2022-12-08T09:24:23.337Z,18
2022-12-08T09:25:25.989Z,19
2022-12-08T09:26:35.090Z,18
2022-12-08T09:27:37.330Z,19
2022-12-08T09:28:39.987Z,20
2022-12-08T09:29:42.644Z,22
2022-12-08T09:30:45.259Z,20
2022-12-08T09:31:48.009Z,20
2022-12-08T09:32:50.842Z,20
2022-12-08T09:33:53.523Z,20
2022-12-08T09:34:56.196Z,19
2022-12-08T09:35:58.746Z,20
2022-12-08T09:37:11.345Z,19
2022-12-08T09:38:13.557Z,18
2022-12-08T09:39:16.194Z,19
2022-12-08T09:40:19.384Z,19
2022-12-08T09:41:22.031Z,17
2022-12-08T09:42:24.635Z,18
2022-12-08T09:43:27.296Z,19
2022-12-08T09:44:29.982Z,19
2022-12-08T09:45:32.599Z,19
2022-12-08T09:46:35.321Z,20
2022-12-08T09:47:38.263Z,19
2022-12-08T09:48:40.865Z,19
2022-12-08T09:49:43.467Z,18
2022-12-08T09:50:46.061Z,18
2022-12-08T09:51:48.645Z,17
2022-12-08T09:52:51.392Z,18
2022-12-08T09:53:54.412Z,17
2022-12-08T09:54:57.267Z,17
2022-12-08T09:56:05.438Z,19
2022-12-08T09:57:07.688Z,17
2022-12-08T09:58:13.170Z,17
2022-12-08T09:59:15.684Z,17
2022-12-08T10:00:18.306Z,17
2022-12-08T10:01:21.034Z,17
2022-12-08T10:02:23.973Z,17
2022-12-08T10:03:27.058Z,18
2022-12-08T10:04:29.821Z,18
2022-12-08T10:05:32.757Z,19
2022-12-08T10:06:35.656Z,18
2022-12-08T10:07:38.380Z,18
2022-12-08T10:08:41.200Z,18
2022-12-08T10:09:54.442Z,17
2022-12-08T10:10:56.696Z,17
2022-12-08T10:11:59.276Z,18
2022-12-08T10:13:01.957Z,17
2022-12-08T10:14:04.561Z,17
2022-12-08T10:15:07.794Z,17
2022-12-08T10:16:19.215Z,17
2022-12-08T10:17:31.700Z,16
2022-12-08T10:18:34.289Z,16
2022-12-08T10:19:36.888Z,16
2022-12-08T10:20:39.518Z,16
2022-12-08T10:21:42.136Z,17
2022-12-08T10:22:45.377Z,16
2022-12-08T10:23:47.890Z,16
2022-12-08T10:24:50.605Z,16
2022-12-08T10:25:53.219Z,17
2022-12-08T10:26:56.476Z,17
2022-12-08T10:27:59.063Z,17
2022-12-08T10:29:01.717Z,17
2022-12-08T10:30:05.190Z,17
2022-12-08T10:31:14.165Z,16
2022-12-08T10:32:23.081Z,15
2022-12-08T10:33:25.257Z,15
2022-12-08T10:34:27.821Z,14
2022-12-08T10:35:30.477Z,16
2022-12-08T10:36:33.055Z,16
2022-12-08T10:37:35.717Z,16
2022-12-08T10:38:38.278Z,16
2022-12-08T10:39:40.913Z,16
2022-12-08T10:40:49.057Z,16
2022-12-08T10:41:51.361Z,17
2022-12-08T10:42:54.036Z,18
2022-12-08T10:43:56.665Z,18
2022-12-08T10:44:59.271Z,19
2022-12-08T10:46:01.883Z,17
2022-12-08T10:47:04.624Z,14
2022-12-08T10:48:07.471Z,14
2022-12-08T10:49:10.082Z,14
2022-12-08T10:50:12.734Z,14
2022-12-08T10:51:16.323Z,14
2022-12-08T10:52:18.960Z,14
2022-12-08T10:53:21.583Z,16
2022-12-08T10:54:27.701Z,13
2022-12-08T10:55:30.153Z,14
2022-12-08T10:56:32.897Z,16
2022-12-08T10:57:36.188Z,14
2022-12-08T10:58:38.819Z,14
2022-12-08T10:59:41.528Z,14
2022-12-08T11:00:51.291Z,15
2022-12-08T11:01:54.721Z,16
2022-12-08T11:02:57.987Z,15
2022-12-08T11:04:00.755Z,17
2022-12-08T11:05:03.392Z,20
2022-12-08T11:06:11.135Z,20
2022-12-08T11:07:13.550Z,17
2022-12-08T11:08:16.239Z,16
2022-12-08T11:09:19.668Z,14
2022-12-08T11:10:22.284Z,14
2022-12-08T11:11:29.724Z,14
2022-12-08T11:12:32.045Z,13
2022-12-08T11:13:34.680Z,14
2022-12-08T11:14:37.318Z,14
2022-12-08T11:15:39.976Z,13
2022-12-08T11:16:42.807Z,14
2022-12-08T11:17:45.691Z,14
2022-12-08T11:18:48.917Z,11
2022-12-08T11:19:51.496Z,11
2022-12-08T11:20:54.102Z,13
2022-12-08T11:21:56.750Z,13
2022-12-08T11:22:59.413Z,11
2022-12-08T11:24:02.075Z,11
2022-12-08T11:25:04.706Z,11
2022-12-08T11:26:07.305Z,11
2022-12-08T11:27:09.949Z,11
2022-12-08T11:28:12.596Z,11
2022-12-08T11:29:15.244Z,11
2022-12-08T11:30:18.754Z,13
2022-12-08T11:31:22.392Z,11
2022-12-08T11:32:25.264Z,11
2022-12-08T11:33:27.912Z,13
2022-12-08T11:34:30.562Z,11
2022-12-08T11:35:33.211Z,11
2022-12-08T11:36:35.817Z,13
2022-12-08T11:37:39.036Z,11
2022-12-08T11:38:41.721Z,13
2022-12-08T11:39:44.346Z,13
2022-12-08T11:40:50.610Z,11
2022-12-08T11:41:53.010Z,13
2022-12-08T11:42:55.621Z,13
2022-12-08T11:43:58.275Z,14
2022-12-08T11:45:00.960Z,13
2022-12-08T11:46:03.918Z,17
2022-12-08T11:47:06.666Z,17
2022-12-08T11:48:09.343Z,17
2022-12-08T11:49:11.988Z,16
2022-12-08T11:50:19.799Z,14
2022-12-08T11:51:22.373Z,16
2022-12-08T11:52:24.996Z,17
2022-12-08T11:53:28.425Z,17
2022-12-08T11:54:31.285Z,17
2022-12-08T11:55:40.049Z,17
2022-12-08T11:56:52.017Z,16
2022-12-08T11:57:55.063Z,17
2022-12-08T11:58:58.765Z,17
2022-12-08T12:00:02.650Z,14
2022-12-08T12:01:06.374Z,16
2022-12-08T12:02:10.687Z,16
2022-12-08T12:03:14.022Z,16
2022-12-08T12:04:16.770Z,16
2022-12-08T12:05:33.625Z,14
2022-12-08T12:06:54.538Z,14
2022-12-08T12:07:58.011Z,16
2022-12-08T12:09:01.082Z,16
2022-12-08T12:10:04.450Z,16
2022-12-08T12:11:08.285Z,14
2022-12-08T12:12:10.849Z,14
2022-12-08T12:13:13.507Z,15
2022-12-08T12:14:16.098Z,16
2022-12-08T12:15:18.755Z,16
2022-12-08T12:16:21.513Z,16
2022-12-08T12:17:24.278Z,16
2022-12-08T12:18:27.168Z,16
2022-12-08T12:19:29.974Z,16
2022-12-08T12:20:32.601Z,17
2022-12-08T12:21:35.786Z,17
2022-12-08T12:22:38.393Z,17
2022-12-08T12:23:41.019Z,19
2022-12-08T12:24:43.594Z,19
2022-12-08T12:25:46.206Z,17
2022-12-08T12:26:48.954Z,17
2022-12-08T12:27:57.720Z,17
2022-12-08T12:29:00.035Z,17
2022-12-08T12:30:13.427Z,17
2022-12-08T12:31:15.808Z,17
2022-12-08T12:32:18.624Z,17
2022-12-08T12:33:31.840Z,17
2022-12-08T12:34:34.024Z,17
2022-12-08T12:35:44.142Z,16
2022-12-08T12:36:46.281Z,16
2022-12-08T12:37:48.899Z,17
2022-12-08T12:38:51.451Z,14
2022-12-08T12:39:54.027Z,16
2022-12-08T12:40:56.593Z,17
2022-12-08T12:41:59.606Z,16
2022-12-08T12:43:03.048Z,16
2022-12-08T12:44:05.528Z,16
2022-12-08T12:45:08.067Z,17
2022-12-08T12:46:10.850Z,17
2022-12-08T12:47:14.580Z,17
2022-12-08T12:48:17.762Z,19
2022-12-08T12:49:30.941Z,17
2022-12-08T12:50:33.396Z,16
2022-12-08T12:51:36.670Z,17
2022-12-08T12:52:41.748Z,16
2022-12-08T12:53:49.734Z,17
2022-12-08T12:54:55.499Z,17
2022-12-08T12:55:57.809Z,17
2022-12-08T12:57:00.421Z,17
2022-12-08T12:58:03.569Z,17
2022-12-08T12:59:06.117Z,17
2022-12-08T13:00:09.364Z,16
2022-12-08T13:01:13.666Z,17
2022-12-08T13:02:20.154Z,17
2022-12-08T13:03:23.000Z,14
2022-12-08T13:04:25.782Z,16
2022-12-08T13:05:38.628Z,14
2022-12-08T13:06:44.725Z,14
2022-12-08T13:07:47.780Z,14
2022-12-08T13:08:50.505Z,16
2022-12-08T13:09:53.129Z,15
2022-12-08T13:10:55.746Z,14
2022-12-08T13:12:09.827Z,14
2022-12-08T13:13:11.975Z,14
2022-12-08T13:14:14.553Z,16
2022-12-08T13:15:17.724Z,14
2022-12-08T13:16:21.243Z,14
2022-12-08T13:17:24.110Z,16
2022-12-08T13:18:26.786Z,14
2022-12-08T13:19:32.954Z,14
2022-12-08T13:20:35.355Z,16
2022-12-08T13:21:37.978Z,17
2022-12-08T13:22:55.185Z,14
2022-12-08T13:23:58.106Z,16
2022-12-08T13:25:00.713Z,16
2022-12-08T13:26:03.346Z,14
2022-12-08T13:27:05.952Z,14
2022-12-08T13:28:08.599Z,16
2022-12-08T13:29:11.207Z,14
2022-12-08T13:30:13.908Z,14
2022-12-08T13:31:16.681Z,14
2022-12-08T13:32:19.446Z,14
2022-12-08T13:33:22.059Z,14
2022-12-08T13:34:28.264Z,14
2022-12-08T13:35:30.924Z,14
2022-12-08T13:36:33.519Z,14
2022-12-08T13:37:50.936Z,15
2022-12-08T13:38:56.954Z,14
2022-12-08T13:39:59.519Z,16
2022-12-08T13:41:02.152Z,14
2022-12-08T13:42:04.733Z,15
2022-12-08T13:43:07.357Z,14
2022-12-08T13:47:31.978Z,14
2022-12-08T13:48:30.450Z,14
2022-12-08T13:57:49.841Z,16
2022-12-08T13:58:52.607Z,14
2022-12-08T13:59:55.208Z,13
2022-12-08T14:00:57.771Z,14
2022-12-08T14:02:00.390Z,16
2022-12-08T14:03:03.206Z,16
2022-12-08T14:04:37.398Z,16
2022-12-08T14:06:03.090Z,17
2022-12-08T14:06:49.689Z,18
2022-12-08T14:07:52.388Z,20
2022-12-08T14:09:05.205Z,20
2022-12-08T14:10:13.192Z,19
2022-12-08T14:11:15.755Z,17
2022-12-08T14:12:18.354Z,17
2022-12-08T14:13:21.247Z,19
2022-12-08T14:14:54.213Z,20
2022-12-08T14:15:45.829Z,20
2022-12-08T14:16:48.539Z,19
2022-12-08T14:17:51.163Z,17
2022-12-08T14:18:53.820Z,17
2022-12-08T14:19:56.429Z,14
2022-12-08T14:21:21.037Z,14
2022-12-08T14:22:20.861Z,14
2022-12-08T14:23:23.409Z,13
2022-12-08T14:24:26.049Z,11
2022-12-08T14:25:28.720Z,13
2022-12-08T14:26:31.384Z,14
2022-12-08T14:27:34.053Z,14
2022-12-08T14:28:44.938Z,14
2022-12-08T14:29:48.004Z,14
2022-12-08T14:30:50.911Z,13
2022-12-08T14:31:53.636Z,14
2022-12-08T14:32:56.276Z,14
2022-12-08T14:33:58.885Z,14
2022-12-08T14:35:02.040Z,13
2022-12-08T14:36:05.469Z,11
2022-12-08T14:37:08.118Z,14
2022-12-08T14:38:10.906Z,13
2022-12-08T14:39:13.655Z,13
2022-12-08T14:40:23.303Z,14
2022-12-08T14:41:26.286Z,16
2022-12-08T14:42:28.921Z,18
2022-12-08T14:43:32.678Z,20
2022-12-08T14:44:35.244Z,20
2022-12-08T14:45:37.848Z,17
2022-12-08T14:46:40.562Z,17
2022-12-08T14:47:43.410Z,17
2022-12-08T14:48:46.116Z,16
2022-12-08T14:49:48.745Z,17
2022-12-08T14:50:51.368Z,16
2022-12-08T14:51:54.007Z,16
2022-12-08T14:52:56.656Z,16
2022-12-08T14:53:59.498Z,14
2022-12-08T14:55:02.597Z,16
2022-12-08T14:56:05.229Z,16
2022-12-08T14:57:07.916Z,14
2022-12-08T14:58:16.697Z,14
2022-12-08T14:59:19.016Z,13
2022-12-08T15:00:21.663Z,14
2022-12-08T15:01:25.005Z,16
2022-12-08T15:02:31.167Z,17
2022-12-08T15:03:33.588Z,17
2022-12-08T15:04:36.234Z,17
2022-12-08T15:05:39.015Z,17
2022-12-08T15:06:42.145Z,17
2022-12-08T15:07:44.886Z,17
2022-12-08T15:08:51.228Z,19
2022-12-08T15:09:53.615Z,18
2022-12-08T15:10:56.199Z,17
2022-12-08T15:11:58.805Z,18
2022-12-08T15:13:01.510Z,20
2022-12-08T15:14:04.136Z,20
2022-12-08T15:15:06.781Z,20
2022-12-08T15:16:09.594Z,20
2022-12-08T15:17:12.337Z,20
2022-12-08T15:18:17.822Z,21
2022-12-08T15:19:20.336Z,22